sensor_id;sensor_type;location;lat;lon;timestamp;temperature;humidity
1413;DHT22;701;52.526;13.408;2022-08-30T00:00:33;17.20;43.00
1413;DHT22;701;52.526;13.408;2022-08-30T00:03:17;17.10;43.20
1413;DHT22;701;52.526;13.408;2022-08-30T00:05:44;17.10;43.40
1413;DHT22;701;52.526;13.408;2022-08-30T00:08:10;17.00;43.50
1413;DHT22;701;52.526;13.408;2022-08-30T00:10:38;17.00;44.00
1413;DHT22;701;52.526;13.408;2022-08-30T00:13:05;16.90;44.10
1413;DHT22;701;52.526;13.408;2022-08-30T00:15:31;16.90;44.30
1413;DHT22;701;52.526;13.408;2022-08-30T00:17:57;16.90;44.70
1413;DHT22;701;52.526;13.408;2022-08-30T00:20:26;16.90;45.50
1413;DHT22;701;52.526;13.408;2022-08-30T00:22:52;16.90;46.00
1413;DHT22;701;52.526;13.408;2022-08-30T00:25:18;16.90;46.00
1413;DHT22;701;52.526;13.408;2022-08-30T00:27:44;16.90;46.00
1413;DHT22;701;52.526;13.408;2022-08-30T00:30:11;16.90;46.00
1413;DHT22;701;52.526;13.408;2022-08-30T00:32:37;16.90;46.00
1413;DHT22;701;52.526;13.408;2022-08-30T00:35:05;16.90;46.00
1413;DHT22;701;52.526;13.408;2022-08-30T00:37:31;16.90;46.00
1413;DHT22;701;52.526;13.408;2022-08-30T00:39:57;17.00;46.10
1413;DHT22;701;52.526;13.408;2022-08-30T00:42:23;17.00;46.10
1413;DHT22;701;52.526;13.408;2022-08-30T00:44:49;17.00;46.10
1413;DHT22;701;52.526;13.408;2022-08-30T00:47:15;17.00;46.10
1413;DHT22;701;52.526;13.408;2022-08-30T00:49:43;17.00;46.10
1413;DHT22;701;52.526;13.408;2022-08-30T00:52:09;17.00;46.10
1413;DHT22;701;52.526;13.408;2022-08-30T00:54:39;17.00;46.10
1413;DHT22;701;52.526;13.408;2022-08-30T00:57:06;17.00;46.10
1413;DHT22;701;52.526;13.408;2022-08-30T00:59:33;17.00;46.10
1413;DHT22;701;52.526;13.408;2022-08-30T01:02:00;16.90;46.00
1413;DHT22;701;52.526;13.408;2022-08-30T01:04:28;16.90;46.00
1413;DHT22;701;52.526;13.408;2022-08-30T01:06:54;16.90;46.10
1413;DHT22;701;52.526;13.408;2022-08-30T01:09:20;16.90;46.20
1413;DHT22;701;52.526;13.408;2022-08-30T01:11:47;16.90;46.20
1413;DHT22;701;52.526;13.408;2022-08-30T01:14:14;16.90;46.30
1413;DHT22;701;52.526;13.408;2022-08-30T01:16:42;16.90;46.00
1413;DHT22;701;52.526;13.408;2022-08-30T01:21:56;16.90;46.30
1413;DHT22;701;52.526;13.408;2022-08-30T01:24:23;16.80;46.10
1413;DHT22;701;52.526;13.408;2022-08-30T01:26:49;16.80;46.20
1413;DHT22;701;52.526;13.408;2022-08-30T01:29:18;16.70;46.50
1413;DHT22;701;52.526;13.408;2022-08-30T01:31:45;16.70;46.60
1413;DHT22;701;52.526;13.408;2022-08-30T01:34:11;16.60;46.40
1413;DHT22;701;52.526;13.408;2022-08-30T01:36:38;16.60;46.60
1413;DHT22;701;52.526;13.408;2022-08-30T01:39:08;16.50;46.50
1413;DHT22;701;52.526;13.408;2022-08-30T01:41:35;16.50;46.80
1413;DHT22;701;52.526;13.408;2022-08-30T01:44:04;16.50;47.30
1413;DHT22;701;52.526;13.408;2022-08-30T01:46:34;16.40;47.60
1413;DHT22;701;52.526;13.408;2022-08-30T01:49:07;16.40;48.00
1413;DHT22;701;52.526;13.408;2022-08-30T01:51:33;16.40;48.40
1413;DHT22;701;52.526;13.408;2022-08-30T01:53:59;16.30;48.50
1413;DHT22;701;52.526;13.408;2022-08-30T01:56:27;16.30;48.80
1413;DHT22;701;52.526;13.408;2022-08-30T01:58:54;16.30;49.10
1413;DHT22;701;52.526;13.408;2022-08-30T02:01:22;16.30;49.10
1413;DHT22;701;52.526;13.408;2022-08-30T02:03:50;16.30;49.20
1413;DHT22;701;52.526;13.408;2022-08-30T02:06:19;16.30;49.40
1413;DHT22;701;52.526;13.408;2022-08-30T02:08:45;16.30;49.60
1413;DHT22;701;52.526;13.408;2022-08-30T02:11:12;16.20;49.80
1413;DHT22;701;52.526;13.408;2022-08-30T02:13:39;16.30;49.80
1413;DHT22;701;52.526;13.408;2022-08-30T02:16:10;16.20;49.80
1413;DHT22;701;52.526;13.408;2022-08-30T02:18:37;16.20;49.80
1413;DHT22;701;52.526;13.408;2022-08-30T02:21:04;16.10;49.70
1413;DHT22;701;52.526;13.408;2022-08-30T02:23:30;16.10;49.80
1413;DHT22;701;52.526;13.408;2022-08-30T02:25:56;16.10;49.80
1413;DHT22;701;52.526;13.408;2022-08-30T02:28:21;16.10;50.10
1413;DHT22;701;52.526;13.408;2022-08-30T02:30:47;16.00;50.20
1413;DHT22;701;52.526;13.408;2022-08-30T02:33:13;16.00;50.60
1413;DHT22;701;52.526;13.408;2022-08-30T02:35:39;16.00;50.70
1413;DHT22;701;52.526;13.408;2022-08-30T02:38:05;15.90;50.60
1413;DHT22;701;52.526;13.408;2022-08-30T02:40:31;15.90;50.90
1413;DHT22;701;52.526;13.408;2022-08-30T02:42:56;15.90;51.20
1413;DHT22;701;52.526;13.408;2022-08-30T02:45:23;15.90;51.40
1413;DHT22;701;52.526;13.408;2022-08-30T02:47:49;15.90;51.70
1413;DHT22;701;52.526;13.408;2022-08-30T02:50:14;15.90;51.70
1413;DHT22;701;52.526;13.408;2022-08-30T02:52:40;15.80;51.80
1413;DHT22;701;52.526;13.408;2022-08-30T02:55:07;15.80;51.80
1413;DHT22;701;52.526;13.408;2022-08-30T02:57:33;15.80;52.00
1413;DHT22;701;52.526;13.408;2022-08-30T02:59:59;15.80;52.20
1413;DHT22;701;52.526;13.408;2022-08-30T03:02:26;15.80;52.30
1413;DHT22;701;52.526;13.408;2022-08-30T03:04:52;15.80;52.60
1413;DHT22;701;52.526;13.408;2022-08-30T03:07:18;15.80;52.60
1413;DHT22;701;52.526;13.408;2022-08-30T03:09:44;15.70;52.50
1413;DHT22;701;52.526;13.408;2022-08-30T03:12:10;15.70;52.40
1413;DHT22;701;52.526;13.408;2022-08-30T03:14:37;15.70;52.40
1413;DHT22;701;52.526;13.408;2022-08-30T03:17:05;15.60;52.60
1413;DHT22;701;52.526;13.408;2022-08-30T03:19:32;15.60;52.90
1413;DHT22;701;52.526;13.408;2022-08-30T03:21:58;15.60;53.40
1413;DHT22;701;52.526;13.408;2022-08-30T03:24:24;15.60;53.50
1413;DHT22;701;52.526;13.408;2022-08-30T03:26:50;15.60;53.50
1413;DHT22;701;52.526;13.408;2022-08-30T03:29:16;15.60;53.50
1413;DHT22;701;52.526;13.408;2022-08-30T03:31:42;15.60;53.50
1413;DHT22;701;52.526;13.408;2022-08-30T03:34:08;15.60;53.50
1413;DHT22;701;52.526;13.408;2022-08-30T03:36:36;15.50;53.40
1413;DHT22;701;52.526;13.408;2022-08-30T03:39:07;15.50;53.90
1413;DHT22;701;52.526;13.408;2022-08-30T03:41:32;15.50;54.30
1413;DHT22;701;52.526;13.408;2022-08-30T03:43:59;15.50;54.50
1413;DHT22;701;52.526;13.408;2022-08-30T03:46:25;15.50;54.70
1413;DHT22;701;52.526;13.408;2022-08-30T03:48:51;15.60;55.00
1413;DHT22;701;52.526;13.408;2022-08-30T03:51:17;15.50;55.00
1413;DHT22;701;52.526;13.408;2022-08-30T03:56:13;15.60;55.20
1413;DHT22;701;52.526;13.408;2022-08-30T03:58:40;15.60;55.20
1413;DHT22;701;52.526;13.408;2022-08-30T04:01:06;15.60;55.20
1413;DHT22;701;52.526;13.408;2022-08-30T04:03:31;15.60;55.20
1413;DHT22;701;52.526;13.408;2022-08-30T04:05:57;15.60;55.00
1413;DHT22;701;52.526;13.408;2022-08-30T04:08:23;15.60;54.70
1413;DHT22;701;52.526;13.408;2022-08-30T04:10:50;15.60;54.70
1413;DHT22;701;52.526;13.408;2022-08-30T04:13:18;15.60;54.60
1413;DHT22;701;52.526;13.408;2022-08-30T04:15:44;15.60;54.50
1413;DHT22;701;52.526;13.408;2022-08-30T04:18:10;15.50;54.40
1413;DHT22;701;52.526;13.408;2022-08-30T04:20:37;15.50;54.60
1413;DHT22;701;52.526;13.408;2022-08-30T04:23:04;15.50;54.50
1413;DHT22;701;52.526;13.408;2022-08-30T04:25:33;15.50;54.50
1413;DHT22;701;52.526;13.408;2022-08-30T04:28:00;15.50;54.70
1413;DHT22;701;52.526;13.408;2022-08-30T04:30:25;15.60;55.10
1413;DHT22;701;52.526;13.408;2022-08-30T04:32:51;15.60;55.20
1413;DHT22;701;52.526;13.408;2022-08-30T04:35:17;15.60;55.30
1413;DHT22;701;52.526;13.408;2022-08-30T04:37:43;15.60;55.10
1413;DHT22;701;52.526;13.408;2022-08-30T04:40:09;15.60;55.00
1413;DHT22;701;52.526;13.408;2022-08-30T04:42:35;15.60;55.20
1413;DHT22;701;52.526;13.408;2022-08-30T04:45:03;15.70;55.30
1413;DHT22;701;52.526;13.408;2022-08-30T04:47:30;15.70;55.30
1413;DHT22;701;52.526;13.408;2022-08-30T04:49:55;15.70;55.20
1413;DHT22;701;52.526;13.408;2022-08-30T04:52:21;15.80;55.20
1413;DHT22;701;52.526;13.408;2022-08-30T04:54:47;15.80;55.40
1413;DHT22;701;52.526;13.408;2022-08-30T04:57:13;15.90;55.50
1413;DHT22;701;52.526;13.408;2022-08-30T04:59:38;16.00;55.80
1413;DHT22;701;52.526;13.408;2022-08-30T05:02:05;16.10;55.70
1413;DHT22;701;52.526;13.408;2022-08-30T05:04:30;16.20;55.50
1413;DHT22;701;52.526;13.408;2022-08-30T05:06:56;16.20;55.30
1413;DHT22;701;52.526;13.408;2022-08-30T05:09:21;16.40;55.00
1413;DHT22;701;52.526;13.408;2022-08-30T05:11:47;16.50;54.90
1413;DHT22;701;52.526;13.408;2022-08-30T05:14:13;16.50;54.50
1413;DHT22;701;52.526;13.408;2022-08-30T05:16:39;16.60;54.30
1413;DHT22;701;52.526;13.408;2022-08-30T05:19:06;16.70;54.40
1413;DHT22;701;52.526;13.408;2022-08-30T05:21:32;16.80;54.00
1413;DHT22;701;52.526;13.408;2022-08-30T05:23:59;16.80;53.40
1413;DHT22;701;52.526;13.408;2022-08-30T05:26:30;16.90;53.20
1413;DHT22;701;52.526;13.408;2022-08-30T05:28:56;17.00;52.90
1413;DHT22;701;52.526;13.408;2022-08-30T05:31:25;17.10;52.50
1413;DHT22;701;52.526;13.408;2022-08-30T05:33:52;17.10;52.10
1413;DHT22;701;52.526;13.408;2022-08-30T05:36:20;17.20;51.50
1413;DHT22;701;52.526;13.408;2022-08-30T05:38:48;17.30;51.10
1413;DHT22;701;52.526;13.408;2022-08-30T05:41:14;17.40;50.80
1413;DHT22;701;52.526;13.408;2022-08-30T05:43:40;17.50;50.90
1413;DHT22;701;52.526;13.408;2022-08-30T05:46:08;17.60;49.90
1413;DHT22;701;52.526;13.408;2022-08-30T05:48:35;17.60;49.30
1413;DHT22;701;52.526;13.408;2022-08-30T05:51:11;17.70;49.00
1413;DHT22;701;52.526;13.408;2022-08-30T05:53:39;17.80;48.50
1413;DHT22;701;52.526;13.408;2022-08-30T05:56:07;17.90;47.90
1413;DHT22;701;52.526;13.408;2022-08-30T05:58:34;18.00;47.00
1413;DHT22;701;52.526;13.408;2022-08-30T06:00:59;18.20;47.10
1413;DHT22;701;52.526;13.408;2022-08-30T06:03:26;18.20;46.40
1413;DHT22;701;52.526;13.408;2022-08-30T06:05:52;18.40;45.60
1413;DHT22;701;52.526;13.408;2022-08-30T06:08:19;18.50;44.90
1413;DHT22;701;52.526;13.408;2022-08-30T06:10:45;18.50;44.00
1413;DHT22;701;52.526;13.408;2022-08-30T06:13:12;18.60;43.40
1413;DHT22;701;52.526;13.408;2022-08-30T06:15:39;18.80;43.30
1413;DHT22;701;52.526;13.408;2022-08-30T06:18:05;18.90;42.50
1413;DHT22;701;52.526;13.408;2022-08-30T06:20:30;19.00;42.00
1413;DHT22;701;52.526;13.408;2022-08-30T06:22:57;19.00;41.20
1413;DHT22;701;52.526;13.408;2022-08-30T06:25:23;19.10;40.50
1413;DHT22;701;52.526;13.408;2022-08-30T06:27:48;19.10;40.70
1413;DHT22;701;52.526;13.408;2022-08-30T06:30:14;19.30;39.90
1413;DHT22;701;52.526;13.408;2022-08-30T06:32:40;19.30;39.40
1413;DHT22;701;52.526;13.408;2022-08-30T06:35:07;19.40;38.60
1413;DHT22;701;52.526;13.408;2022-08-30T06:37:35;19.50;38.90
1413;DHT22;701;52.526;13.408;2022-08-30T06:40:02;19.60;37.60
1413;DHT22;701;52.526;13.408;2022-08-30T06:42:31;19.70;36.90
1413;DHT22;701;52.526;13.408;2022-08-30T06:45:01;19.90;36.70
1413;DHT22;701;52.526;13.408;2022-08-30T06:47:28;20.00;36.30
1413;DHT22;701;52.526;13.408;2022-08-30T06:49:54;20.10;35.50
1413;DHT22;701;52.526;13.408;2022-08-30T06:52:19;20.10;34.70
1413;DHT22;701;52.526;13.408;2022-08-30T06:54:45;20.10;34.40
1413;DHT22;701;52.526;13.408;2022-08-30T06:57:11;20.20;34.30
1413;DHT22;701;52.526;13.408;2022-08-30T06:59:37;20.30;33.80
1413;DHT22;701;52.526;13.408;2022-08-30T07:02:04;20.30;33.50
1413;DHT22;701;52.526;13.408;2022-08-30T07:04:30;20.40;33.20
1413;DHT22;701;52.526;13.408;2022-08-30T07:06:56;20.50;32.80
1413;DHT22;701;52.526;13.408;2022-08-30T07:09:23;20.50;32.30
1413;DHT22;701;52.526;13.408;2022-08-30T07:11:49;20.50;32.00
1413;DHT22;701;52.526;13.408;2022-08-30T07:14:15;20.60;31.40
1413;DHT22;701;52.526;13.408;2022-08-30T07:16:43;20.60;31.40
1413;DHT22;701;52.526;13.408;2022-08-30T07:19:08;20.60;31.40
1413;DHT22;701;52.526;13.408;2022-08-30T07:21:38;20.60;31.40
1413;DHT22;701;52.526;13.408;2022-08-30T07:24:06;20.70;31.50
1413;DHT22;701;52.526;13.408;2022-08-30T07:26:35;20.80;30.50
1413;DHT22;701;52.526;13.408;2022-08-30T07:29:01;20.90;30.00
1413;DHT22;701;52.526;13.408;2022-08-30T07:31:27;21.00;29.60
1413;DHT22;701;52.526;13.408;2022-08-30T07:33:54;21.10;29.20
1413;DHT22;701;52.526;13.408;2022-08-30T07:36:20;21.20;29.00
1413;DHT22;701;52.526;13.408;2022-08-30T07:38:47;21.30;28.70
1413;DHT22;701;52.526;13.408;2022-08-30T07:41:35;21.40;28.10
1413;DHT22;701;52.526;13.408;2022-08-30T07:44:03;21.60;27.70
1413;DHT22;701;52.526;13.408;2022-08-30T07:46:30;21.70;27.40
1413;DHT22;701;52.526;13.408;2022-08-30T07:48:59;21.70;26.80
1413;DHT22;701;52.526;13.408;2022-08-30T07:51:26;21.70;26.70
1413;DHT22;701;52.526;13.408;2022-08-30T07:53:53;21.60;26.60
1413;DHT22;701;52.526;13.408;2022-08-30T07:56:19;21.50;26.50
1413;DHT22;701;52.526;13.408;2022-08-30T07:58:45;21.50;26.60
1413;DHT22;701;52.526;13.408;2022-08-30T08:01:12;21.40;27.00
1413;DHT22;701;52.526;13.408;2022-08-30T08:03:39;21.30;26.80
1413;DHT22;701;52.526;13.408;2022-08-30T08:06:07;21.30;26.80
1413;DHT22;701;52.526;13.408;2022-08-30T08:08:34;21.30;26.60
1413;DHT22;701;52.526;13.408;2022-08-30T08:11:13;21.40;26.20
1413;DHT22;701;52.526;13.408;2022-08-30T08:13:40;21.40;25.80
1413;DHT22;701;52.526;13.408;2022-08-30T08:16:05;21.60;25.60
1413;DHT22;701;52.526;13.408;2022-08-30T08:18:31;21.80;25.40
1413;DHT22;701;52.526;13.408;2022-08-30T08:20:58;22.20;25.00
1413;DHT22;701;52.526;13.408;2022-08-30T08:23:24;22.70;24.30
1413;DHT22;701;52.526;13.408;2022-08-30T08:25:50;23.10;22.90
1413;DHT22;701;52.526;13.408;2022-08-30T08:28:16;23.50;22.00
1413;DHT22;701;52.526;13.408;2022-08-30T08:30:42;23.70;20.30
1413;DHT22;701;52.526;13.408;2022-08-30T08:33:08;23.90;19.10
1413;DHT22;701;52.526;13.408;2022-08-30T08:35:34;24.00;18.80
1413;DHT22;701;52.526;13.408;2022-08-30T08:37:59;24.30;18.50
1413;DHT22;701;52.526;13.408;2022-08-30T08:40:26;24.50;18.10
1413;DHT22;701;52.526;13.408;2022-08-30T08:48:27;24.70;15.90
1413;DHT22;701;52.526;13.408;2022-08-30T08:50:53;24.70;16.20
1413;DHT22;701;52.526;13.408;2022-08-30T08:53:40;24.80;16.30
1413;DHT22;701;52.526;13.408;2022-08-30T08:56:11;24.70;16.20
1413;DHT22;701;52.526;13.408;2022-08-30T08:58:46;24.80;16.10
1413;DHT22;701;52.526;13.408;2022-08-30T09:01:15;24.70;15.60
1413;DHT22;701;52.526;13.408;2022-08-30T09:03:42;24.70;16.10
1413;DHT22;701;52.526;13.408;2022-08-30T09:08:55;24.30;15.40
1413;DHT22;701;52.526;13.408;2022-08-30T09:11:25;24.00;16.30
1413;DHT22;701;52.526;13.408;2022-08-30T09:13:52;23.90;16.90
1413;DHT22;701;52.526;13.408;2022-08-30T09:22:19;23.20;18.30
1413;DHT22;701;52.526;13.408;2022-08-30T09:24:49;23.00;19.10
1413;DHT22;701;52.526;13.408;2022-08-30T09:27:25;22.80;19.40
1413;DHT22;701;52.526;13.408;2022-08-30T09:35:25;22.20;20.50
1413;DHT22;701;52.526;13.408;2022-08-30T09:38:07;22.20;20.80
1413;DHT22;701;52.526;13.408;2022-08-30T09:40:37;22.00;20.80
1413;DHT22;701;52.526;13.408;2022-08-30T09:45:41;22.00;21.20
1413;DHT22;701;52.526;13.408;2022-08-30T09:53:49;22.20;20.10
1413;DHT22;701;52.526;13.408;2022-08-30T10:01:52;22.60;18.70
1413;DHT22;701;52.526;13.408;2022-08-30T10:04:26;22.70;18.20
1413;DHT22;701;52.526;13.408;2022-08-30T10:06:59;22.90;18.10
1413;DHT22;701;52.526;13.408;2022-08-30T10:09:35;23.00;17.70
1413;DHT22;701;52.526;13.408;2022-08-30T10:17:47;23.50;16.10
1413;DHT22;701;52.526;13.408;2022-08-30T10:20:28;23.70;15.90
1413;DHT22;701;52.526;13.408;2022-08-30T10:25:30;24.20;15.10
1413;DHT22;701;52.526;13.408;2022-08-30T10:28:03;24.30;14.20
1413;DHT22;701;52.526;13.408;2022-08-30T10:30:33;24.40;13.90
1413;DHT22;701;52.526;13.408;2022-08-30T10:33:42;24.70;13.60
1413;DHT22;701;52.526;13.408;2022-08-30T10:36:11;24.90;12.00
1413;DHT22;701;52.526;13.408;2022-08-30T10:38:47;25.20;12.30
1413;DHT22;701;52.526;13.408;2022-08-30T10:41:36;25.50;10.30
1413;DHT22;701;52.526;13.408;2022-08-30T10:44:26;25.80;9.00
1413;DHT22;701;52.526;13.408;2022-08-30T10:49:39;26.60;7.40
1413;DHT22;701;52.526;13.408;2022-08-30T10:52:24;27.00;6.60
1413;DHT22;701;52.526;13.408;2022-08-30T10:54:58;27.20;5.50
1413;DHT22;701;52.526;13.408;2022-08-30T10:57:25;27.40;5.10
1413;DHT22;701;52.526;13.408;2022-08-30T10:59:55;27.60;5.20
1413;DHT22;701;52.526;13.408;2022-08-30T11:11:19;28.10;3.50
1413;DHT22;701;52.526;13.408;2022-08-30T11:13:47;28.20;4.00
1413;DHT22;701;52.526;13.408;2022-08-30T11:16:15;28.20;3.90
1413;DHT22;701;52.526;13.408;2022-08-30T11:18:51;28.20;4.20
1413;DHT22;701;52.526;13.408;2022-08-30T11:21:22;28.20;4.50
1413;DHT22;701;52.526;13.408;2022-08-30T11:24:07;28.30;4.40
1413;DHT22;701;52.526;13.408;2022-08-30T11:29:42;28.40;4.10
1413;DHT22;701;52.526;13.408;2022-08-30T11:37:41;28.40;4.10
1413;DHT22;701;52.526;13.408;2022-08-30T11:42:50;28.30;3.80
1413;DHT22;701;52.526;13.408;2022-08-30T11:53:02;28.10;3.60
1413;DHT22;701;52.526;13.408;2022-08-30T12:03:57;27.70;3.70
1413;DHT22;701;52.526;13.408;2022-08-30T12:09:10;27.50;4.00
1413;DHT22;701;52.526;13.408;2022-08-30T12:14:04;27.50;4.20
1413;DHT22;701;52.526;13.408;2022-08-30T12:16:44;27.40;4.20
1413;DHT22;701;52.526;13.408;2022-08-30T12:19:48;27.20;4.40
1413;DHT22;701;52.526;13.408;2022-08-30T12:22:16;27.10;4.40
1413;DHT22;701;52.526;13.408;2022-08-30T12:24:46;27.00;4.60
1413;DHT22;701;52.526;13.408;2022-08-30T12:27:31;26.90;4.70
1413;DHT22;701;52.526;13.408;2022-08-30T12:30:04;26.80;4.50
1413;DHT22;701;52.526;13.408;2022-08-30T12:32:31;26.70;4.80
1413;DHT22;701;52.526;13.408;2022-08-30T12:34:59;26.70;4.80
1413;DHT22;701;52.526;13.408;2022-08-30T12:37:34;26.70;4.90
1413;DHT22;701;52.526;13.408;2022-08-30T12:40:08;26.70;4.90
1413;DHT22;701;52.526;13.408;2022-08-30T12:42:38;26.70;5.10
1413;DHT22;701;52.526;13.408;2022-08-30T12:45:11;26.70;5.10
1413;DHT22;701;52.526;13.408;2022-08-30T12:50:02;26.80;4.80
1413;DHT22;701;52.526;13.408;2022-08-30T12:52:36;26.80;4.80
1413;DHT22;701;52.526;13.408;2022-08-30T12:57:43;26.90;4.10
1413;DHT22;701;52.526;13.408;2022-08-30T13:00:33;26.90;4.00
1413;DHT22;701;52.526;13.408;2022-08-30T13:03:04;26.90;4.20
1413;DHT22;701;52.526;13.408;2022-08-30T13:08:36;27.00;4.40
1413;DHT22;701;52.526;13.408;2022-08-30T13:13:53;26.80;4.80
1413;DHT22;701;52.526;13.408;2022-08-30T13:21:56;26.60;4.70
1413;DHT22;701;52.526;13.408;2022-08-30T13:24:22;26.50;4.70
1413;DHT22;701;52.526;13.408;2022-08-30T13:26:48;26.40;5.30
1413;DHT22;701;52.526;13.408;2022-08-30T13:29:16;26.30;5.70
1413;DHT22;701;52.526;13.408;2022-08-30T13:31:42;26.20;5.80
1413;DHT22;701;52.526;13.408;2022-08-30T13:34:08;26.10;6.20
1413;DHT22;701;52.526;13.408;2022-08-30T13:36:37;26.00;6.50
1413;DHT22;701;52.526;13.408;2022-08-30T13:39:04;25.90;6.60
1413;DHT22;701;52.526;13.408;2022-08-30T13:41:30;25.90;6.90
1413;DHT22;701;52.526;13.408;2022-08-30T13:43:56;25.70;7.10
1413;DHT22;701;52.526;13.408;2022-08-30T13:46:22;25.70;7.40
1413;DHT22;701;52.526;13.408;2022-08-30T13:48:52;25.50;7.90
1413;DHT22;701;52.526;13.408;2022-08-30T13:51:20;25.50;8.10
1413;DHT22;701;52.526;13.408;2022-08-30T13:53:46;25.50;8.10
1413;DHT22;701;52.526;13.408;2022-08-30T13:56:12;25.50;8.10
1413;DHT22;701;52.526;13.408;2022-08-30T13:58:37;25.50;8.10
1413;DHT22;701;52.526;13.408;2022-08-30T14:01:03;25.50;8.10
1413;DHT22;701;52.526;13.408;2022-08-30T14:03:29;25.40;8.20
1413;DHT22;701;52.526;13.408;2022-08-30T14:05:55;25.20;8.60
1413;DHT22;701;52.526;13.408;2022-08-30T14:08:24;25.10;9.00
1413;DHT22;701;52.526;13.408;2022-08-30T14:10:52;24.90;9.30
1413;DHT22;701;52.526;13.408;2022-08-30T14:13:17;24.80;9.80
1413;DHT22;701;52.526;13.408;2022-08-30T14:15:43;24.70;10.00
1413;DHT22;701;52.526;13.408;2022-08-30T14:18:10;24.60;10.20
1413;DHT22;701;52.526;13.408;2022-08-30T14:20:35;24.50;10.50
1413;DHT22;701;52.526;13.408;2022-08-30T14:23:01;24.40;10.90
1413;DHT22;701;52.526;13.408;2022-08-30T14:25:27;24.30;11.00
1413;DHT22;701;52.526;13.408;2022-08-30T14:27:54;24.20;11.30
1413;DHT22;701;52.526;13.408;2022-08-30T14:30:20;24.10;11.70
1413;DHT22;701;52.526;13.408;2022-08-30T14:32:46;24.00;11.90
1413;DHT22;701;52.526;13.408;2022-08-30T14:35:12;24.00;12.20
1413;DHT22;701;52.526;13.408;2022-08-30T14:37:38;23.90;12.30
1413;DHT22;701;52.526;13.408;2022-08-30T14:40:04;23.90;13.00
1413;DHT22;701;52.526;13.408;2022-08-30T14:42:30;24.00;12.80
1413;DHT22;701;52.526;13.408;2022-08-30T14:44:55;24.00;13.00
1413;DHT22;701;52.526;13.408;2022-08-30T14:47:22;23.90;13.10
1413;DHT22;701;52.526;13.408;2022-08-30T14:49:47;23.80;13.30
1413;DHT22;701;52.526;13.408;2022-08-30T14:52:13;23.70;13.50
1413;DHT22;701;52.526;13.408;2022-08-30T14:54:39;23.60;13.60
1413;DHT22;701;52.526;13.408;2022-08-30T14:57:04;23.50;13.70
1413;DHT22;701;52.526;13.408;2022-08-30T14:59:30;23.40;14.00
1413;DHT22;701;52.526;13.408;2022-08-30T15:01:56;23.30;14.20
1413;DHT22;701;52.526;13.408;2022-08-30T15:04:22;23.40;14.50
1413;DHT22;701;52.526;13.408;2022-08-30T15:06:48;23.40;14.60
1413;DHT22;701;52.526;13.408;2022-08-30T15:09:18;23.40;14.50
1413;DHT22;701;52.526;13.408;2022-08-30T15:11:45;23.30;14.50
1413;DHT22;701;52.526;13.408;2022-08-30T15:14:11;23.30;14.50
1413;DHT22;701;52.526;13.408;2022-08-30T15:16:38;23.30;14.50
1413;DHT22;701;52.526;13.408;2022-08-30T15:19:07;23.30;14.50
1413;DHT22;701;52.526;13.408;2022-08-30T15:21:36;23.30;14.50
1413;DHT22;701;52.526;13.408;2022-08-30T15:24:04;23.20;14.50
1413;DHT22;701;52.526;13.408;2022-08-30T15:26:30;23.20;14.50
1413;DHT22;701;52.526;13.408;2022-08-30T15:28:56;23.20;14.50
1413;DHT22;701;52.526;13.408;2022-08-30T15:31:24;23.20;14.50
1413;DHT22;701;52.526;13.408;2022-08-30T15:33:50;23.20;14.50
1413;DHT22;701;52.526;13.408;2022-08-30T15:36:15;23.20;14.50
1413;DHT22;701;52.526;13.408;2022-08-30T15:38:41;23.10;14.40
1413;DHT22;701;52.526;13.408;2022-08-30T15:41:10;23.10;14.40
1413;DHT22;701;52.526;13.408;2022-08-30T15:43:36;23.10;14.40
1413;DHT22;701;52.526;13.408;2022-08-30T15:46:23;23.10;14.60
1413;DHT22;701;52.526;13.408;2022-08-30T15:48:51;23.10;14.90
1413;DHT22;701;52.526;13.408;2022-08-30T15:51:20;23.10;14.90
1413;DHT22;701;52.526;13.408;2022-08-30T15:53:47;23.10;14.80
1413;DHT22;701;52.526;13.408;2022-08-30T15:56:13;23.10;14.80
1413;DHT22;701;52.526;13.408;2022-08-30T15:58:40;23.10;14.80
1413;DHT22;701;52.526;13.408;2022-08-30T16:01:06;23.00;14.50
1413;DHT22;701;52.526;13.408;2022-08-30T16:03:33;23.00;14.30
1413;DHT22;701;52.526;13.408;2022-08-30T16:05:59;23.00;14.40
1413;DHT22;701;52.526;13.408;2022-08-30T16:08:26;23.10;14.40
1413;DHT22;701;52.526;13.408;2022-08-30T16:10:52;23.00;14.30
1413;DHT22;701;52.526;13.408;2022-08-30T16:13:17;23.10;13.90
1413;DHT22;701;52.526;13.408;2022-08-30T16:15:43;23.00;13.80
1413;DHT22;701;52.526;13.408;2022-08-30T16:18:10;23.00;13.60
1413;DHT22;701;52.526;13.408;2022-08-30T16:20:39;23.00;13.60
1413;DHT22;701;52.526;13.408;2022-08-30T16:23:06;22.90;13.50
1413;DHT22;701;52.526;13.408;2022-08-30T16:25:32;22.90;13.40
1413;DHT22;701;52.526;13.408;2022-08-30T16:27:58;22.80;13.70
1413;DHT22;701;52.526;13.408;2022-08-30T16:30:24;22.80;13.90
1413;DHT22;701;52.526;13.408;2022-08-30T16:32:50;22.70;14.20
1413;DHT22;701;52.526;13.408;2022-08-30T16:35:16;22.60;14.10
1413;DHT22;701;52.526;13.408;2022-08-30T16:37:42;22.50;14.30
1413;DHT22;701;52.526;13.408;2022-08-30T16:40:08;22.50;14.60
1413;DHT22;701;52.526;13.408;2022-08-30T16:42:34;22.40;14.60
1413;DHT22;701;52.526;13.408;2022-08-30T16:44:59;22.40;14.30
1413;DHT22;701;52.526;13.408;2022-08-30T16:47:25;22.40;14.60
1413;DHT22;701;52.526;13.408;2022-08-30T16:49:51;22.30;14.60
1413;DHT22;701;52.526;13.408;2022-08-30T16:52:16;22.30;14.60
1413;DHT22;701;52.526;13.408;2022-08-30T16:54:42;22.10;14.80
1413;DHT22;701;52.526;13.408;2022-08-30T16:57:08;22.10;14.90
1413;DHT22;701;52.526;13.408;2022-08-30T16:59:33;22.10;15.00
1413;DHT22;701;52.526;13.408;2022-08-30T17:01:59;22.00;15.00
1413;DHT22;701;52.526;13.408;2022-08-30T17:04:25;21.90;15.00
1413;DHT22;701;52.526;13.408;2022-08-30T17:06:50;21.80;15.00
1413;DHT22;701;52.526;13.408;2022-08-30T17:09:18;21.70;15.20
1413;DHT22;701;52.526;13.408;2022-08-30T17:11:44;21.60;15.40
1413;DHT22;701;52.526;13.408;2022-08-30T17:14:09;21.50;15.30
1413;DHT22;701;52.526;13.408;2022-08-30T17:16:36;21.40;15.30
1413;DHT22;701;52.526;13.408;2022-08-30T17:19:03;21.30;15.50
1413;DHT22;701;52.526;13.408;2022-08-30T17:21:29;21.20;15.50
1413;DHT22;701;52.526;13.408;2022-08-30T17:23:56;21.20;15.70
1413;DHT22;701;52.526;13.408;2022-08-30T17:26:22;21.10;15.90
1413;DHT22;701;52.526;13.408;2022-08-30T17:28:48;21.00;16.10
1413;DHT22;701;52.526;13.408;2022-08-30T17:31:14;21.00;16.30
1413;DHT22;701;52.526;13.408;2022-08-30T17:33:40;21.00;16.80
1413;DHT22;701;52.526;13.408;2022-08-30T17:36:07;20.90;16.70
1413;DHT22;701;52.526;13.408;2022-08-30T17:38:34;20.90;16.70
1413;DHT22;701;52.526;13.408;2022-08-30T17:41:04;20.90;16.70
1413;DHT22;701;52.526;13.408;2022-08-30T17:43:31;20.90;16.80
1413;DHT22;701;52.526;13.408;2022-08-30T17:46:13;20.90;16.70
1413;DHT22;701;52.526;13.408;2022-08-30T17:48:43;20.80;17.10
1413;DHT22;701;52.526;13.408;2022-08-30T17:51:09;20.80;17.20
1413;DHT22;701;52.526;13.408;2022-08-30T17:53:35;20.70;17.30
1413;DHT22;701;52.526;13.408;2022-08-30T17:56:05;20.60;17.60